Time;durP1;ratioP1;P1;durP2;ratioP2;P2;SDS_P1;SDS_P2;PMS_P1;PMS_P2;Temp;Humidity;BMP_temperature;BMP_pressure;BME280_temperature;BME280_humidity;BME280_pressure;Samples;Min_cycle;Max_cycle;Signal;HPM_P1;HPM_P2
2022/04/05 00:01:48;;;;;;;9.07;8.17;;;6.40;59.20;;;;;;5035755;28;20495;-45
2022/04/05 00:04:14;;;;;;;10.80;9.70;;;6.40;59.40;;;;;;5050644;28;20171;-45
2022/04/05 00:06:39;;;;;;;10.00;9.00;;;6.40;59.70;;;;;;5034322;28;20183;-45
2022/04/05 00:09:05;;;;;;;10.57;9.57;;;6.30;60.00;;;;;;5034991;28;20244;-45
2022/04/05 00:11:30;;;;;;;9.60;8.70;;;6.20;60.90;;;;;;5032794;28;20470;-45
2022/04/05 00:13:56;;;;;;;10.57;9.47;;;6.20;61.20;;;;;;5034737;28;20182;-45
2022/04/05 00:16:22;;;;;;;9.57;7.97;;;6.20;62.00;;;;;;5033638;28;20225;-45
2022/04/05 00:18:47;;;;;;;9.37;8.43;;;6.20;62.50;;;;;;5034462;28;20244;-45
2022/04/05 00:21:13;;;;;;;9.00;8.10;;;6.20;63.00;;;;;;5034476;28;20569;-45
2022/04/05 00:23:39;;;;;;;9.60;8.70;;;6.20;63.10;;;;;;5035109;28;20233;-45
2022/04/05 00:26:04;;;;;;;10.47;9.47;;;6.10;63.70;;;;;;5033875;28;20231;-45
2022/04/05 00:28:31;;;;;;;9.40;8.50;;;6.10;64.60;;;;;;5043186;28;20218;-44
2022/04/05 00:30:57;;;;;;;10.13;9.13;;;6.10;65.00;;;;;;5055468;28;20761;-44
2022/04/05 00:33:23;;;;;;;8.77;7.93;;;6.10;65.10;;;;;;5055187;28;20576;-45
2022/04/05 00:35:48;;;;;;;9.60;8.67;;;6.10;65.30;;;;;;5053891;28;20209;-45
2022/04/05 00:38:14;;;;;;;9.27;8.37;;;6.10;65.30;;;;;;5055681;28;20236;-45
2022/04/05 00:40:39;;;;;;;10.20;9.17;;;6.10;65.50;;;;;;5055247;28;20206;-45
2022/04/05 00:43:05;;;;;;;9.13;8.10;;;6.20;65.80;;;;;;5056390;28;20727;-45
2022/04/05 00:45:32;;;;;;;10.17;9.27;;;6.20;65.70;;;;;;5054440;28;20265;-45
2022/04/05 00:47:59;;;;;;;13.57;8.47;;;6.20;65.90;;;;;;5036891;28;20428;-45
2022/04/05 00:50:27;;;;;;;9.27;8.37;;;6.20;66.00;;;;;;5053454;28;20416;-45
2022/04/05 00:52:53;;;;;;;10.20;9.10;;;6.20;65.70;;;;;;5056163;28;20436;-45
2022/04/05 00:55:22;;;;;;;9.83;8.93;;;6.30;65.70;;;;;;5055187;28;20435;-45
2022/04/05 00:57:50;;;;;;;8.83;7.80;;;6.30;66.00;;;;;;5054972;28;20509;-45
2022/04/05 01:00:16;;;;;;;9.50;8.40;;;6.30;66.00;;;;;;5055269;28;20417;-45
2022/04/05 01:02:42;;;;;;;10.47;9.40;;;6.20;66.10;;;;;;5054280;28;20811;-45
2022/04/05 01:05:07;;;;;;;10.17;9.17;;;6.20;66.40;;;;;;5054824;28;20646;-45
2022/04/05 01:07:34;;;;;;;11.10;9.60;;;6.20;66.40;;;;;;5055178;28;20454;-45
2022/04/05 01:10:05;;;;;;;9.90;8.80;;;6.10;66.50;;;;;;5055508;28;20435;-44
2022/04/05 01:12:31;;;;;;;9.70;8.67;;;6.20;66.70;;;;;;5055490;28;20429;-45
2022/04/05 01:14:59;;;;;;;8.80;7.93;;;6.20;66.90;;;;;;5055498;28;20711;-45
2022/04/05 01:17:25;;;;;;;8.50;7.73;;;6.20;66.90;;;;;;5055553;28;20266;-45
2022/04/05 01:19:52;;;;;;;10.47;9.40;;;6.20;67.10;;;;;;5055302;28;20424;-45
2022/04/05 01:22:17;;;;;;;10.50;9.00;;;6.20;67.30;;;;;;5054555;28;20435;-45
2022/04/05 01:24:43;;;;;;;10.93;9.83;;;6.20;67.40;;;;;;5055150;28;20749;-45
2022/04/05 01:27:16;;;;;;;8.57;7.77;;;6.20;67.30;;;;;;5055946;28;20244;-45
2022/04/05 01:29:42;;;;;;;9.10;8.20;;;6.20;67.60;;;;;;5057277;28;20713;-45
2022/04/05 01:32:08;;;;;;;10.00;8.90;;;6.20;68.00;;;;;;5059159;28;20432;-45
2022/04/05 01:37:57;;;;;;;9.27;8.37;;;6.10;68.90;;;;;;5058302;28;20440;-45
2022/04/05 01:40:24;;;;;;;10.00;8.10;;;6.20;69.20;;;;;;5058826;28;20458;-45
2022/04/05 01:42:50;;;;;;;11.73;8.20;;;6.10;69.00;;;;;;5058075;28;20845;-45
2022/04/05 01:45:16;;;;;;;9.40;8.40;;;6.20;69.00;;;;;;5058859;28;20416;-45
2022/04/05 01:47:41;;;;;;;10.07;9.07;;;6.10;69.10;;;;;;5057240;28;20182;-45
2022/04/05 01:50:07;;;;;;;9.67;8.67;;;6.00;69.20;;;;;;5058084;28;20993;-45
2022/04/05 01:52:33;;;;;;;9.43;8.50;;;6.00;69.30;;;;;;5058050;28;20175;-45
2022/04/05 01:54:59;;;;;;;10.57;8.80;;;6.10;69.40;;;;;;5057758;28;20408;-45
2022/04/05 01:57:24;;;;;;;10.60;9.60;;;6.10;69.70;;;;;;5057723;28;20216;-45
2022/04/05 01:59:50;;;;;;;9.87;8.67;;;6.00;70.00;;;;;;5058651;28;20206;-45
2022/04/05 02:02:16;;;;;;;9.50;8.60;;;6.00;70.20;;;;;;5058145;28;20170;-43
2022/04/05 02:04:41;;;;;;;9.27;8.23;;;6.00;70.30;;;;;;5057758;28;20251;-46
2022/04/05 02:07:12;;;;;;;10.23;9.00;;;6.00;70.40;;;;;;5058165;28;20265;-45
2022/04/05 02:09:37;;;;;;;9.47;8.33;;;6.00;71.10;;;;;;5058703;28;20235;-45
2022/04/05 02:12:03;;;;;;;10.50;9.27;;;6.00;71.30;;;;;;5058489;28;20933;-45
2022/04/05 02:14:29;;;;;;;8.93;8.13;;;6.00;71.80;;;;;;5057752;28;20255;-45
2022/04/05 02:16:55;;;;;;;9.63;8.70;;;6.00;72.00;;;;;;5058825;28;20471;-45
2022/04/05 02:19:20;;;;;;;9.60;8.60;;;6.00;72.50;;;;;;5057701;28;20261;-45
2022/04/05 02:21:46;;;;;;;9.30;8.17;;;6.00;72.50;;;;;;5058403;28;20178;-45
2022/04/05 02:24:12;;;;;;;10.57;9.47;;;6.00;72.80;;;;;;5057826;28;20235;-45
2022/04/05 02:26:38;;;;;;;9.33;8.17;;;6.10;73.10;;;;;;5058304;28;20234;-45
2022/04/05 02:29:03;;;;;;;9.37;8.57;;;6.00;73.00;;;;;;5056872;28;20277;-45
2022/04/05 02:31:29;;;;;;;9.50;8.43;;;6.00;73.10;;;;;;5056808;28;20288;-45
2022/04/05 02:33:54;;;;;;;9.40;8.23;;;6.00;73.10;;;;;;5057560;28;20532;-45
2022/04/05 02:36:20;;;;;;;11.30;8.67;;;6.10;73.10;;;;;;5058007;28;20216;-45
2022/04/05 02:38:46;;;;;;;9.33;8.40;;;6.10;73.20;;;;;;5057012;28;20597;-45
2022/04/05 02:41:11;;;;;;;8.90;8.00;;;6.00;73.00;;;;;;5056963;28;20653;-45
2022/04/05 02:43:37;;;;;;;10.57;8.77;;;6.00;73.00;;;;;;5056363;28;20182;-45
2022/04/05 02:46:03;;;;;;;9.70;8.80;;;6.00;73.10;;;;;;5057338;28;20197;-45
2022/04/05 02:48:29;;;;;;;9.80;8.80;;;6.00;73.20;;;;;;5057534;28;20448;-45
2022/04/05 02:50:55;;;;;;;9.47;8.57;;;6.00;73.30;;;;;;5057750;28;20417;-45
2022/04/05 02:53:21;;;;;;;10.40;9.40;;;6.00;73.30;;;;;;5056987;28;20439;-45
2022/04/05 02:55:47;;;;;;;9.23;8.33;;;6.00;73.20;;;;;;5057301;28;20210;-45
2022/04/05 02:58:13;;;;;;;9.50;8.50;;;6.10;73.40;;;;;;5056535;28;20182;-45
2022/04/05 03:00:39;;;;;;;9.00;8.10;;;6.10;73.40;;;;;;5057210;28;20198;-45
2022/04/05 03:03:05;;;;;;;8.60;7.80;;;6.10;73.50;;;;;;5056554;28;20405;-45
2022/04/05 03:05:31;;;;;;;10.17;9.07;;;6.10;73.30;;;;;;5056622;28;20432;-45
2022/04/05 03:07:57;;;;;;;9.50;8.20;;;6.10;73.20;;;;;;5055917;28;20823;-45
2022/04/05 03:10:22;;;;;;;9.20;8.17;;;6.10;73.10;;;;;;5055368;28;20644;-45
2022/04/05 03:12:48;;;;;;;9.07;8.17;;;6.10;73.10;;;;;;5055565;28;20167;-45
2022/04/05 03:15:14;;;;;;;9.83;8.60;;;6.10;73.10;;;;;;5055880;28;20165;-45
2022/04/05 03:17:44;;;;;;;10.43;9.37;;;6.10;73.00;;;;;;5054941;28;20213;-45
2022/04/05 03:20:14;;;;;;;9.60;8.00;;;6.10;72.80;;;;;;5054099;28;20842;-44
2022/04/05 03:22:43;;;;;;;9.17;8.30;;;6.10;72.90;;;;;;5054660;28;20421;-45
2022/04/05 03:25:10;;;;;;;9.27;8.13;;;6.10;72.70;;;;;;5055177;28;20468;-45
2022/04/05 03:27:45;;;;;;;8.27;7.47;;;6.10;72.60;;;;;;5054952;28;20428;-45
2022/04/05 03:30:13;;;;;;;8.13;7.20;;;6.10;72.50;;;;;;5054739;28;20443;-45
2022/04/05 03:32:38;;;;;;;8.37;7.57;;;6.10;72.50;;;;;;5053494;28;20441;-45
2022/04/05 03:35:05;;;;;;;10.80;8.60;;;6.20;72.50;;;;;;5056276;28;20424;-45
2022/04/05 03:37:32;;;;;;;9.70;8.70;;;6.20;72.40;;;;;;5055492;28;20209;-45
2022/04/05 03:39:57;;;;;;;11.63;8.50;;;6.20;72.20;;;;;;5055807;28;20416;-45
2022/04/05 03:42:23;;;;;;;9.00;8.10;;;6.20;72.20;;;;;;5054384;28;20429;-45
2022/04/05 03:44:49;;;;;;;10.10;8.67;;;6.20;72.00;;;;;;5055203;28;20174;-45
2022/04/05 03:47:15;;;;;;;8.60;7.70;;;6.20;71.90;;;;;;5053537;28;20640;-45
2022/04/05 03:49:41;;;;;;;9.43;8.10;;;6.20;71.90;;;;;;5055118;28;20477;-45
2022/04/05 03:52:07;;;;;;;8.47;7.67;;;6.20;72.00;;;;;;5053849;28;20239;-45
2022/04/05 03:54:32;;;;;;;9.40;8.10;;;6.20;71.90;;;;;;5054815;28;20427;-45
2022/04/05 03:56:58;;;;;;;9.93;8.40;;;6.20;72.00;;;;;;5053418;28;20468;-45
2022/04/05 03:59:24;;;;;;;9.90;8.90;;;6.20;72.00;;;;;;5053879;28;20361;-45
2022/04/05 04:01:50;;;;;;;15.27;10.50;;;6.20;72.10;;;;;;5051557;28;20567;-45
2022/04/05 04:04:15;;;;;;;13.30;8.70;;;6.20;72.00;;;;;;5052666;28;20445;-48
2022/04/05 04:06:41;;;;;;;8.90;8.00;;;6.20;72.10;;;;;;5052302;28;20421;-48
2022/04/05 04:09:06;;;;;;;8.43;7.63;;;6.10;72.00;;;;;;5053185;28;20196;-48
2022/04/05 04:11:32;;;;;;;8.60;7.87;;;6.20;72.00;;;;;;5052486;28;20232;-48
2022/04/05 04:13:58;;;;;;;8.60;7.70;;;6.20;71.70;;;;;;5053247;28;20185;-48
2022/04/05 04:16:24;;;;;;;8.53;7.63;;;6.20;71.60;;;;;;5053198;28;20283;-48
2022/04/05 04:18:50;;;;;;;8.47;7.70;;;6.30;71.40;;;;;;5053356;28;20428;-48
2022/04/05 04:21:16;;;;;;;9.27;8.20;;;6.30;71.10;;;;;;5052753;28;20665;-48
2022/04/05 04:23:41;;;;;;;9.07;8.17;;;6.30;71.00;;;;;;5051308;28;20182;-48
2022/04/05 04:26:07;;;;;;;8.57;7.67;;;6.40;71.00;;;;;;5051216;28;20230;-48
2022/04/05 04:28:33;;;;;;;10.13;8.60;;;6.30;70.80;;;;;;5049486;28;20611;-48
2022/04/05 04:30:58;;;;;;;9.10;7.87;;;6.40;71.00;;;;;;5051099;28;20425;-48
2022/04/05 04:33:24;;;;;;;9.00;8.13;;;6.40;71.40;;;;;;5050195;28;20372;-48
2022/04/05 04:35:50;;;;;;;8.17;7.37;;;6.40;71.90;;;;;;5048449;28;20228;-48
2022/04/05 04:38:19;;;;;;;8.17;7.30;;;6.40;72.80;;;;;;5050959;28;20421;-48
2022/04/05 04:40:50;;;;;;;8.90;8.00;;;6.40;73.20;;;;;;5052524;28;20273;-48
2022/04/05 04:43:17;;;;;;;8.97;8.10;;;6.40;73.50;;;;;;5052548;28;20510;-48
2022/04/05 04:45:44;;;;;;;9.70;8.77;;;6.30;73.60;;;;;;5053184;28;20428;-48
2022/04/05 04:48:10;;;;;;;8.97;7.90;;;6.30;74.00;;;;;;5051940;28;20443;-48
2022/04/05 04:50:35;;;;;;;9.17;8.27;;;6.30;74.30;;;;;;5052258;28;20424;-48
2022/04/05 04:53:01;;;;;;;9.87;8.87;;;6.30;74.70;;;;;;5051067;28;20817;-48
2022/04/05 04:55:28;;;;;;;8.70;7.90;;;6.20;75.00;;;;;;5050797;28;20568;-48
2022/04/05 04:57:54;;;;;;;9.03;8.13;;;6.20;75.30;;;;;;5048966;28;20435;-48
2022/04/05 05:00:20;;;;;;;9.07;8.20;;;6.20;75.70;;;;;;5047336;28;20717;-48
2022/04/05 05:02:50;;;;;;;9.77;8.80;;;6.20;76.00;;;;;;5048918;28;20482;-48
2022/04/05 05:05:17;;;;;;;8.50;7.70;;;6.10;76.20;;;;;;5052232;28;20835;-48
2022/04/05 05:07:44;;;;;;;9.20;8.13;;;6.10;76.10;;;;;;5052064;28;20440;-48
2022/04/05 05:10:11;;;;;;;8.73;7.83;;;6.10;76.50;;;;;;5051382;28;20431;-48
2022/04/05 05:12:40;;;;;;;8.90;8.00;;;6.10;76.50;;;;;;5053252;28;20427;-48
2022/04/05 05:15:10;;;;;;;9.07;7.87;;;6.10;76.40;;;;;;5052218;28;20969;-47
2022/04/05 05:17:36;;;;;;;8.53;7.37;;;6.10;76.30;;;;;;5050525;28;20562;-48
2022/04/05 05:20:03;;;;;;;8.37;7.60;;;6.20;76.30;;;;;;5050002;28;20420;-48
2022/04/05 05:22:29;;;;;;;8.90;8.00;;;6.10;76.10;;;;;;5047942;28;20455;-48
2022/04/05 05:24:54;;;;;;;9.27;8.37;;;6.20;76.00;;;;;;5051509;28;20952;-48
2022/04/05 05:27:20;;;;;;;9.00;8.20;;;6.20;75.80;;;;;;5046113;28;20190;-48
2022/04/05 05:29:46;;;;;;;8.50;7.70;;;6.20;75.90;;;;;;5047030;28;20321;-48
2022/04/05 05:32:11;;;;;;;9.20;8.30;;;6.20;76.10;;;;;;5047172;28;20195;-48
2022/04/05 05:34:37;;;;;;;8.97;7.50;;;6.20;76.40;;;;;;5048495;28;20231;-48
2022/04/05 05:37:05;;;;;;;8.00;7.27;;;6.20;76.50;;;;;;5046844;28;20427;-48
2022/04/05 05:39:31;;;;;;;8.30;7.50;;;6.20;76.80;;;;;;5043775;28;20417;-47
2022/04/05 05:41:58;;;;;;;8.30;7.40;;;6.20;77.00;;;;;;5045202;28;20451;-47
2022/04/05 05:44:24;;;;;;;8.73;7.93;;;6.20;77.30;;;;;;5046165;28;20612;-47
2022/04/05 05:46:50;;;;;;;8.77;7.70;;;6.30;77.70;;;;;;5043998;28;20634;-47
2022/04/05 05:49:16;;;;;;;8.30;7.37;;;6.30;77.80;;;;;;5044848;28;20453;-47
2022/04/05 05:51:42;;;;;;;9.57;8.37;;;6.30;78.00;;;;;;5044403;28;21011;-47
2022/04/05 05:54:08;;;;;;;11.33;8.00;;;6.30;79.20;;;;;;5045510;28;20182;-47
2022/04/05 05:56:33;;;;;;;7.50;6.30;;;6.30;78.90;;;;;;5045844;28;20515;-47
2022/04/05 05:58:59;;;;;;;8.50;7.70;;;6.30;79.20;;;;;;5047240;28;20195;-47
2022/04/05 06:01:25;;;;;;;8.10;7.30;;;6.30;79.50;;;;;;5043155;28;20569;-47
2022/04/05 06:03:51;;;;;;;11.07;8.90;;;6.30;80.00;;;;;;5045131;28;20175;-47
2022/04/05 06:06:17;;;;;;;9.20;8.20;;;6.30;80.60;;;;;;5043495;28;20432;-47
2022/04/05 06:08:44;;;;;;;9.77;7.60;;;6.30;81.00;;;;;;5047217;28;20190;-47
2022/04/05 06:11:10;;;;;;;8.40;7.60;;;6.30;81.60;;;;;;5048048;28;20862;-47
2022/04/05 06:13:36;;;;;;;8.53;7.70;;;6.20;81.90;;;;;;5047111;28;20546;-39
2022/04/05 06:16:02;;;;;;;8.67;7.77;;;6.20;82.40;;;;;;5046531;28;20469;-39
2022/04/05 06:18:28;;;;;;;8.77;7.87;;;6.20;82.60;;;;;;5045493;28;20637;-39
2022/04/05 06:20:54;;;;;;;9.73;8.83;;;6.30;82.80;;;;;;5044443;28;20718;-40
2022/04/05 06:23:19;;;;;;;10.60;9.23;;;6.30;82.60;;;;;;5047756;28;20193;-40
2022/04/05 06:25:45;;;;;;;9.13;8.23;;;6.30;82.60;;;;;;5045378;28;20260;-40
2022/04/05 06:28:11;;;;;;;8.40;7.60;;;6.30;82.60;;;;;;5048067;28;20556;-40
2022/04/05 06:30:38;;;;;;;9.43;7.93;;;6.40;82.80;;;;;;5049847;28;20220;-41
2022/04/05 06:33:18;;;;;;;8.23;7.40;;;6.40;83.60;;;;;;5050827;28;20193;-40
2022/04/05 06:35:52;;;;;;;8.63;7.63;;;6.40;83.30;;;;;;5051703;28;20472;-39
2022/04/05 06:38:19;;;;;;;8.23;7.43;;;6.40;83.40;;;;;;5050712;28;20727;-40
2022/04/05 06:40:44;;;;;;;8.73;7.67;;;6.40;83.30;;;;;;5051025;28;20413;-40
2022/04/05 06:43:11;;;;;;;7.67;6.90;;;6.40;83.50;;;;;;5050208;28;20435;-40
2022/04/05 06:45:37;;;;;;;9.63;8.40;;;6.40;83.60;;;;;;5050528;28;20178;-40
2022/04/05 06:48:03;;;;;;;8.73;7.93;;;6.40;83.70;;;;;;5049680;28;20429;-40
2022/04/05 06:50:29;;;;;;;8.67;7.87;;;6.50;83.70;;;;;;5049364;28;20730;-40
2022/04/05 06:52:57;;;;;;;8.63;7.70;;;6.50;83.60;;;;;;5048115;28;20425;-40
2022/04/05 06:55:23;;;;;;;7.67;6.97;;;6.60;83.60;;;;;;5048865;28;20239;-39
2022/04/05 06:57:49;;;;;;;11.23;7.53;;;6.70;83.40;;;;;;5050997;28;20504;-40
2022/04/05 07:00:18;;;;;;;9.23;8.33;;;6.70;83.10;;;;;;5047660;28;20456;-39
2022/04/05 07:02:44;;;;;;;8.50;7.50;;;6.70;83.10;;;;;;5050315;28;20429;-39
2022/04/05 07:05:10;;;;;;;8.33;7.23;;;6.80;82.90;;;;;;5051110;28;20420;-39
2022/04/05 07:07:39;;;;;;;10.27;7.70;;;6.80;82.60;;;;;;5048464;28;20449;-40
2022/04/05 07:10:08;;;;;;;9.30;7.83;;;6.80;82.50;;;;;;5046831;28;20282;-40
2022/04/05 07:12:35;;;;;;;7.60;6.80;;;6.90;82.40;;;;;;5048894;28;20428;-39
2022/04/05 07:15:00;;;;;;;12.60;8.37;;;7.00;82.20;;;;;;5046631;28;20705;-40
2022/04/05 07:17:26;;;;;;;10.20;8.30;;;7.00;82.10;;;;;;5047675;28;20513;-38
2022/04/05 07:19:52;;;;;;;9.40;7.43;;;7.00;81.80;;;;;;5047162;28;20870;-39
2022/04/05 07:22:19;;;;;;;8.17;7.37;;;7.00;81.60;;;;;;5049429;28;20554;-39
2022/04/05 07:24:46;;;;;;;12.50;7.17;;;7.10;81.50;;;;;;5048739;28;20555;-39
2022/04/05 07:27:12;;;;;;;9.97;8.10;;;7.20;81.40;;;;;;5048330;28;20851;-39
2022/04/05 07:29:38;;;;;;;11.13;7.80;;;7.30;81.10;;;;;;5049393;28;20444;-42
2022/04/05 07:32:04;;;;;;;10.57;8.00;;;7.40;80.90;;;;;;5049265;28;20413;-40
2022/04/05 07:34:30;;;;;;;8.37;6.90;;;7.40;80.60;;;;;;5050706;28;20485;-40
2022/04/05 07:36:55;;;;;;;10.80;7.47;;;7.50;80.50;;;;;;5050053;28;20468;-39
2022/04/05 07:39:23;;;;;;;7.37;6.30;;;7.50;80.40;;;;;;5048687;28;20170;-42
2022/04/05 07:41:49;;;;;;;8.00;6.83;;;7.60;80.30;;;;;;5047705;28;20315;-41
2022/04/05 07:44:15;;;;;;;9.30;7.77;;;7.70;80.20;;;;;;5044261;28;20489;-40
2022/04/05 07:46:41;;;;;;;8.50;7.13;;;7.70;80.00;;;;;;5047424;28;20643;-39
2022/04/05 07:49:07;;;;;;;8.17;7.30;;;7.80;79.70;;;;;;5046629;28;20440;-40
2022/04/05 07:51:32;;;;;;;8.53;7.63;;;7.80;79.40;;;;;;5046644;28;20201;-39
2022/04/05 07:53:58;;;;;;;8.43;7.53;;;7.90;79.30;;;;;;5046928;28;20435;-40
2022/04/05 07:56:24;;;;;;;9.33;7.43;;;8.00;79.00;;;;;;5049009;28;20367;-40
2022/04/05 07:58:50;;;;;;;6.90;6.20;;;8.00;78.80;;;;;;5050133;28;20236;-40
2022/04/05 08:01:16;;;;;;;7.40;6.70;;;8.10;78.80;;;;;;5049998;28;20428;-41
2022/04/05 08:03:41;;;;;;;7.40;5.93;;;8.20;78.80;;;;;;5048925;28;20479;-40
2022/04/05 08:06:07;;;;;;;8.47;6.77;;;8.20;78.50;;;;;;5048215;28;20181;-40
2022/04/05 08:08:33;;;;;;;6.33;5.73;;;8.30;78.30;;;;;;5046640;28;20186;-40
2022/04/05 08:10:59;;;;;;;7.07;6.37;;;8.40;78.40;;;;;;5046325;28;20190;-40
2022/04/05 08:13:27;;;;;;;9.00;7.37;;;8.50;78.40;;;;;;5045179;28;20310;-41
2022/04/05 08:15:54;;;;;;;8.53;6.60;;;8.50;78.30;;;;;;5046159;28;20600;-40
2022/04/05 08:18:20;;;;;;;8.07;6.83;;;8.60;78.10;;;;;;5048251;28;20553;-42
2022/04/05 08:20:46;;;;;;;6.50;5.90;;;8.70;78.10;;;;;;5047806;28;20424;-40
2022/04/05 08:23:11;;;;;;;9.47;7.07;;;8.80;78.20;;;;;;5047019;28;20734;-40
2022/04/05 08:25:37;;;;;;;7.37;6.03;;;8.90;77.90;;;;;;5047358;28;20230;-41
2022/04/05 08:28:04;;;;;;;8.83;6.93;;;9.00;77.90;;;;;;5046351;28;20561;-41
2022/04/05 08:30:30;;;;;;;6.90;6.20;;;9.00;78.60;;;;;;5048674;28;20174;-40
2022/04/05 08:32:56;;;;;;;6.93;5.97;;;9.00;77.80;;;;;;5047869;28;20629;-41
2022/04/05 08:35:23;;;;;;;9.50;5.70;;;9.10;77.60;;;;;;5048833;28;20425;-41
2022/04/05 08:37:55;;;;;;;8.60;6.70;;;9.10;77.70;;;;;;5048905;28;20213;-41
2022/04/05 08:40:22;;;;;;;7.30;6.60;;;9.10;77.80;;;;;;5050718;28;20474;-41
2022/04/05 08:42:50;;;;;;;7.77;5.90;;;9.10;77.90;;;;;;5047349;28;20495;-40
2022/04/05 08:45:18;;;;;;;7.47;6.40;;;9.10;77.50;;;;;;5047110;28;20429;-41
2022/04/05 08:47:46;;;;;;;6.17;5.37;;;9.10;77.20;;;;;;5048409;28;20676;-40
2022/04/05 08:50:19;;;;;;;9.40;7.10;;;9.20;77.10;;;;;;5049755;28;20862;-41
2022/04/05 08:52:45;;;;;;;5.57;4.80;;;9.20;77.10;;;;;;5049694;28;20537;-42
2022/04/05 08:55:12;;;;;;;6.37;5.70;;;9.40;77.10;;;;;;5048407;28;20436;-41
2022/04/05 08:57:38;;;;;;;7.03;6.33;;;9.50;76.80;;;;;;5050541;28;20504;-42
2022/04/05 09:00:06;;;;;;;7.50;6.20;;;9.70;76.40;;;;;;5052044;28;20463;-41
2022/04/05 09:02:31;;;;;;;6.97;5.80;;;9.80;75.60;;;;;;5051838;28;20428;-42
2022/04/05 09:04:57;;;;;;;7.33;5.93;;;10.00;73.80;;;;;;5049234;28;20471;-40
2022/04/05 09:07:25;;;;;;;7.10;6.47;;;10.10;73.00;;;;;;5050717;28;20195;-44
2022/04/05 09:10:16;;;;;;;7.57;6.23;;;10.20;72.60;;;;;;5050924;28;20431;-41
2022/04/05 09:12:43;;;;;;;6.60;5.90;;;10.20;72.10;;;;;;5051263;28;20430;-41
2022/04/05 09:15:23;;;;;;;7.60;5.63;;;10.30;72.00;;;;;;5050927;28;20427;-41
2022/04/05 09:17:49;;;;;;;5.63;5.13;;;10.30;71.90;;;;;;5050012;28;20476;-40
2022/04/05 09:20:17;;;;;;;6.87;5.57;;;10.40;71.80;;;;;;5051543;28;20420;-42
2022/04/05 09:22:43;;;;;;;5.70;5.00;;;10.30;71.70;;;;;;5052237;28;20421;-40
2022/04/05 09:25:14;;;;;;;6.03;5.27;;;10.20;72.20;;;;;;5050542;28;20479;-42
2022/04/05 09:27:49;;;;;;;5.77;5.00;;;10.10;72.30;;;;;;5049923;28;20439;-41
2022/04/05 09:30:16;;;;;;;5.60;5.10;;;10.00;72.60;;;;;;5050558;28;20428;-41
2022/04/05 09:32:45;;;;;;;6.13;5.53;;;10.00;73.00;;;;;;5033620;28;21200;-40
2022/04/05 09:35:11;;;;;;;6.37;5.77;;;10.00;73.40;;;;;;5052506;28;20465;-41
2022/04/05 09:37:38;;;;;;;5.30;4.80;;;10.00;73.60;;;;;;5051457;28;20472;-40
2022/04/05 09:40:32;;;;;;;6.23;5.60;;;10.00;73.70;;;;;;5051859;28;20929;-40
2022/04/05 09:43:08;;;;;;;6.00;5.40;;;10.00;73.90;;;;;;5053042;28;20430;-42
2022/04/05 09:46:02;;;;;;;6.93;6.23;;;10.00;74.10;;;;;;5052073;28;20431;-41
2022/04/05 09:48:32;;;;;;;6.70;6.00;;;9.90;75.50;;;;;;5052070;28;20496;-40
2022/04/05 09:51:01;;;;;;;6.00;5.50;;;9.90;75.70;;;;;;5054209;28;20433;-41
2022/04/05 09:53:30;;;;;;;6.67;5.97;;;9.80;75.70;;;;;;5054526;28;20408;-41
2022/04/05 09:56:14;;;;;;;7.67;5.80;;;9.80;75.70;;;;;;5053315;28;20559;-41
2022/04/05 09:58:52;;;;;;;5.80;5.20;;;9.90;75.90;;;;;;5055210;28;20424;-42
2022/04/05 10:01:20;;;;;;;7.07;5.30;;;9.90;75.80;;;;;;5054843;28;20912;-41
2022/04/05 10:04:08;;;;;;;5.57;4.70;;;10.00;74.50;;;;;;5054074;28;20487;-41
2022/04/05 10:06:38;;;;;;;5.80;5.30;;;10.00;74.50;;;;;;5053272;28;20429;-41
2022/04/05 10:09:05;;;;;;;5.60;4.53;;;10.10;74.50;;;;;;5053266;28;20842;-41
2022/04/05 10:11:33;;;;;;;5.80;5.10;;;10.30;74.80;;;;;;5052410;28;20447;-41
2022/04/05 10:13:59;;;;;;;7.10;4.83;;;10.40;74.70;;;;;;5052397;28;20439;-41
2022/04/05 10:16:27;;;;;;;6.23;5.37;;;10.60;75.00;;;;;;5049682;28;20815;-42
2022/04/05 10:18:58;;;;;;;4.17;3.77;;;10.70;75.30;;;;;;5045128;28;20435;-41
2022/04/05 10:21:26;;;;;;;5.00;4.40;;;10.90;75.30;;;;;;5048894;28;20733;-42
2022/04/05 10:23:54;;;;;;;4.97;4.47;;;11.00;75.30;;;;;;5047865;28;20431;-43
2022/04/05 10:26:24;;;;;;;5.70;4.50;;;11.20;75.20;;;;;;5050914;28;20530;-42
2022/04/05 10:28:51;;;;;;;4.93;4.40;;;11.20;75.00;;;;;;5051469;28;20428;-42
2022/04/05 10:31:42;;;;;;;6.30;5.40;;;11.20;75.10;;;;;;5049790;28;20546;-40
2022/04/05 10:34:40;;;;;;;6.20;4.63;;;11.20;75.50;;;;;;5051291;28;20421;-41
2022/04/05 10:37:18;;;;;;;5.23;4.57;;;11.10;76.00;;;;;;5048178;28;20504;-40
2022/04/05 10:40:04;;;;;;;4.67;4.20;;;11.00;76.40;;;;;;5049608;28;20417;-41
2022/04/05 10:42:37;;;;;;;4.30;3.93;;;11.00;77.20;;;;;;5048379;28;20450;-42
2022/04/05 10:45:19;;;;;;;4.43;4.00;;;10.90;78.10;;;;;;5046899;28;20825;-42
2022/04/05 10:48:12;;;;;;;5.07;3.83;;;10.70;79.30;;;;;;5048627;28;20870;-42
2022/04/05 10:51:05;;;;;;;4.40;3.67;;;10.60;80.30;;;;;;5048398;28;20412;-41
2022/04/05 10:54:17;;;;;;;4.43;3.97;;;10.60;81.80;;;;;;5040877;28;20433;-41
2022/04/05 10:56:29;;;;;;;4.00;3.60;;;10.60;83.00;;;;;;5049138;28;20757;-43
2022/04/05 10:58:55;;;;;;;4.50;3.90;;;10.60;83.50;;;;;;5047122;28;20519;-41
2022/04/05 11:01:28;;;;;;;4.70;4.17;;;10.70;83.30;;;;;;5034600;28;20784;-41
2022/04/05 11:04:14;;;;;;;4.80;4.40;;;10.70;83.10;;;;;;5030620;28;20233;-41
2022/04/05 11:06:59;;;;;;;5.97;5.40;;;10.80;82.60;;;;;;5030124;28;20479;-42
2022/04/05 11:09:40;;;;;;;5.20;3.90;;;10.90;82.20;;;;;;5030538;28;20469;-41
2022/04/05 11:12:11;;;;;;;4.50;4.10;;;10.90;82.10;;;;;;5027927;28;20417;-40
2022/04/05 11:14:50;;;;;;;4.77;3.90;;;10.90;82.30;;;;;;5026482;28;20765;-42
2022/04/05 11:17:17;;;;;;;4.60;4.20;;;10.90;82.20;;;;;;5007210;28;20494;-41
2022/04/05 11:19:45;;;;;;;4.63;4.23;;;10.90;82.00;;;;;;5037754;28;20870;-41
2022/04/05 11:22:32;;;;;;;5.50;4.63;;;10.90;82.10;;;;;;5046657;28;20585;-42
2022/04/05 11:25:06;;;;;;;4.80;4.40;;;11.00;82.30;;;;;;5044564;28;20487;-42
2022/04/05 11:27:46;;;;;;;5.80;4.00;;;11.00;81.90;;;;;;5044276;28;20432;-41
2022/04/05 11:30:21;;;;;;;4.57;4.10;;;11.00;81.70;;;;;;5045371;28;20424;-41
2022/04/05 11:33:17;;;;;;;4.33;3.80;;;10.90;81.90;;;;;;5045196;28;20416;-40
2022/04/05 11:35:51;;;;;;;4.20;3.90;;;10.80;82.10;;;;;;5044125;28;20431;-41
2022/04/05 11:38:19;;;;;;;4.20;3.90;;;10.70;82.80;;;;;;5043402;28;20814;-40
2022/04/05 11:40:58;;;;;;;4.70;3.77;;;10.70;83.00;;;;;;5045715;28;20429;-43
2022/04/05 11:43:30;;;;;;;4.60;4.10;;;10.70;83.10;;;;;;5041445;28;20435;-42
2022/04/05 11:46:19;;;;;;;4.13;3.73;;;10.70;82.90;;;;;;5044427;28;20413;-42
2022/04/05 11:48:54;;;;;;;3.87;3.47;;;10.80;82.90;;;;;;5038776;28;20518;-42
2022/04/05 11:51:24;;;;;;;7.90;4.70;;;10.80;82.70;;;;;;5044463;28;20422;-43
2022/04/05 11:53:50;;;;;;;4.17;3.43;;;10.80;82.50;;;;;;5042288;28;20523;-42
2022/04/05 11:56:20;;;;;;;4.03;3.63;;;10.90;82.20;;;;;;5045057;28;20538;-41
2022/04/05 11:58:52;;;;;;;6.30;4.83;;;11.10;82.00;;;;;;5027882;28;20259;-42
2022/04/05 12:01:42;;;;;;;5.70;4.77;;;11.30;81.50;;;;;;5046353;28;20427;-41
2022/04/05 12:04:21;;;;;;;5.97;5.27;;;11.50;80.70;;;;;;5047477;28;20442;-42
2022/04/05 12:06:59;;;;;;;4.80;4.37;;;11.80;79.50;;;;;;5049967;28;20443;-42
2022/04/05 12:09:26;;;;;;;6.30;5.17;;;12.10;78.60;;;;;;5050475;28;20734;-42
2022/04/05 12:11:53;;;;;;;6.77;5.50;;;12.40;77.70;;;;;;5048113;28;20838;-39
2022/04/05 12:14:24;;;;;;;5.50;4.50;;;12.60;76.60;;;;;;5046681;28;20843;-41
2022/04/05 12:17:02;;;;;;;6.57;4.23;;;12.80;76.10;;;;;;5047982;28;20571;-41
2022/04/05 12:19:36;;;;;;;6.17;5.13;;;13.10;75.50;;;;;;5046180;28;20448;-39
2022/04/05 12:22:07;;;;;;;7.20;6.10;;;13.50;74.60;;;;;;5047777;28;20791;-40
2022/04/05 12:24:42;;;;;;;5.03;4.53;;;13.80;73.00;;;;;;5045989;28;20418;-41
2022/04/05 12:27:08;;;;;;;5.30;4.30;;;14.30;72.50;;;;;;5045187;28;20729;-41
2022/04/05 12:29:41;;;;;;;4.97;4.47;;;14.70;70.70;;;;;;5043008;28;21045;-40
2022/04/05 12:32:12;;;;;;;4.30;3.60;;;14.90;69.50;;;;;;5046383;28;20201;-40
2022/04/05 12:34:39;;;;;;;5.60;4.17;;;15.10;68.20;;;;;;5049052;28;20430;-40
2022/04/05 12:37:05;;;;;;;5.23;4.73;;;15.10;67.50;;;;;;5048847;28;20555;-41
2022/04/05 12:39:33;;;;;;;4.90;4.43;;;15.00;66.30;;;;;;5049045;28;20421;-40
2022/04/05 12:42:04;;;;;;;5.63;5.13;;;15.00;66.10;;;;;;5049658;28;20478;-42
2022/04/05 12:44:32;;;;;;;4.77;4.27;;;14.80;65.40;;;;;;5049623;28;20585;-40
2022/04/05 12:47:08;;;;;;;5.00;4.60;;;14.60;65.50;;;;;;5048103;28;20466;-40
2022/04/05 12:50:07;;;;;;;4.13;3.70;;;14.40;65.70;;;;;;5049603;28;20420;-41
2022/04/05 12:52:34;;;;;;;5.60;5.10;;;14.20;65.80;;;;;;5049636;28;20496;-42
2022/04/05 12:55:04;;;;;;;4.70;4.30;;;14.10;65.80;;;;;;5046993;28;20493;-40
2022/04/05 12:57:38;;;;;;;5.43;4.80;;;13.90;66.40;;;;;;5046771;28;20755;-41
2022/04/05 13:00:18;;;;;;;4.43;4.03;;;13.90;66.90;;;;;;5047355;28;20447;-41
2022/04/05 13:02:53;;;;;;;4.40;3.97;;;13.90;67.20;;;;;;5046613;28;20420;-40
2022/04/05 13:08:10;;;;;;;5.40;4.10;;;14.30;67.10;;;;;;5045421;28;20452;-41